Time;durP1;ratioP1;P1;durP2;ratioP2;P2;SDS_P1;SDS_P2;PMS_P1;PMS_P2;Temp;Humidity;BMP_temperature;BMP_pressure;BME280_temperature;BME280_humidity;BME280_pressure;Samples;Min_cycle;Max_cycle;Signal;HPM_P1;HPM_P2
2024/04/11 00:00:49;;;;;;;9.73;1.55;;;;;;;14.64;42.87;102843.84;5307936;26;108052;-68
2024/04/11 00:03:20;;;;;;;8.07;1.50;;;;;;;14.67;43.06;102838.41;5331907;26;106432;-68
2024/04/11 00:05:48;;;;;;;5.40;1.67;;;;;;;14.70;42.90;102849.00;5316407;26;122550;-67
2024/04/11 00:08:15;;;;;;;5.97;1.77;;;;;;;14.71;42.97;102842.72;5317850;26;121055;-67
2024/04/11 00:10:43;;;;;;;6.70;1.60;;;;;;;14.74;43.15;102847.97;5305469;26;107921;-67
2024/04/11 00:13:10;;;;;;;7.35;1.90;;;;;;;14.77;43.22;102845.22;5308614;26;107751;-67
2024/04/11 00:15:39;;;;;;;7.47;1.75;;;;;;;14.80;43.03;102845.09;5312325;26;122227;-67
2024/04/11 00:18:07;;;;;;;7.40;1.80;;;;;;;14.82;43.06;102837.94;5305406;26;122567;-67
2024/04/11 00:20:35;;;;;;;5.72;1.45;;;;;;;14.86;43.21;102839.59;5311322;26;107694;-67
2024/04/11 00:23:03;;;;;;;5.47;1.58;;;;;;;14.88;42.94;102832.44;5328779;26;107915;-68
2024/04/11 00:25:30;;;;;;;8.27;1.63;;;;;;;14.91;42.99;102832.31;5314190;26;122352;-68
2024/04/11 00:27:58;;;;;;;4.00;1.33;;;;;;;14.94;43.25;102832.22;5303745;26;122565;-67
2024/04/11 00:30:25;;;;;;;5.93;1.30;;;;;;;14.95;43.11;102828.63;5310510;26;107936;-68
2024/04/11 00:32:53;;;;;;;5.22;1.60;;;;;;;14.98;43.38;102828.53;5308166;26;107396;-68
2024/04/11 00:35:23;;;;;;;5.90;1.50;;;;;;;15.01;43.09;102827.56;5307474;26;122233;-68
2024/04/11 00:37:51;;;;;;;4.88;1.30;;;;;;;15.02;43.09;102828.44;5308683;26;122228;-67
2024/04/11 00:40:20;;;;;;;5.25;1.40;;;;;;;15.05;42.97;102823.00;5325577;26;108639;-68
2024/04/11 00:42:48;;;;;;;3.97;1.40;;;;;;;15.06;43.05;102814.06;5308482;26;108802;-67
2024/04/11 00:45:16;;;;;;;4.65;1.27;;;;;;;15.08;43.09;102825.56;5307495;26;120641;-67
2024/04/11 00:47:44;;;;;;;5.53;1.95;;;;;;;15.10;43.26;102826.41;5306621;26;122185;-67
2024/04/11 00:50:12;;;;;;;4.57;1.50;;;;;;;15.11;42.90;102820.16;5305823;26;107663;-67
2024/04/11 00:52:42;;;;;;;4.63;1.00;;;;;;;15.11;43.01;102822.81;5303926;26;106516;-67
2024/04/11 00:55:12;;;;;;;6.30;1.50;;;;;;;15.13;42.82;102820.97;5307044;26;122622;-68
2024/04/11 00:57:41;;;;;;;5.47;1.25;;;;;;;15.14;42.85;102828.03;5318475;26;122338;-68
2024/04/11 01:00:11;;;;;;;6.47;1.50;;;;;;;15.16;43.08;102826.19;5306012;26;108673;-67
2024/04/11 01:02:42;;;;;;;7.80;1.45;;;;;;;15.18;42.80;102824.34;5306596;26;107988;-68
2024/04/11 01:05:10;;;;;;;5.47;1.55;;;;;;;15.19;42.78;102831.44;5313060;26;122688;-67
2024/04/11 01:07:38;;;;;;;4.15;1.48;;;;;;;15.19;43.06;102826.97;5308699;26;122486;-68
2024/04/11 01:10:16;;;;;;;6.50;1.40;;;;;;;15.21;42.84;102834.94;5322287;26;107764;-68
2024/04/11 01:12:44;;;;;;;7.40;1.30;;;;;;;15.23;43.10;102835.75;5316129;26;108258;-68
2024/04/11 01:15:12;;;;;;;5.03;1.33;;;;;;;15.25;42.76;102831.22;5302476;26;121204;-68
2024/04/11 01:17:40;;;;;;;5.65;1.50;;;;;;;15.26;43.06;102826.78;5321914;26;121158;-68
2024/04/11 01:20:11;;;;;;;5.53;1.40;;;;;;;15.28;42.93;102831.13;5317317;26;107439;-68
2024/04/11 01:22:40;;;;;;;6.68;1.40;;;;;;;15.28;42.91;102836.47;5320102;26;107626;-68
2024/04/11 01:25:08;;;;;;;4.05;1.30;;;;;;;15.29;42.91;102827.53;5303795;26;122323;-69
2024/04/11 01:27:35;;;;;;;5.07;1.67;;;;;;;15.30;42.68;102828.44;5315191;26;122423;-69
2024/04/11 01:30:03;;;;;;;8.50;1.67;;;;;;;15.29;43.07;102827.53;5313372;26;108392;-69
2024/04/11 01:32:31;;;;;;;6.50;1.23;;;;;;;15.30;42.75;102829.28;5303512;26;108563;-69
2024/04/11 01:34:59;;;;;;;4.65;1.55;;;;;;;15.32;43.13;102826.56;5301125;26;122717;-68
2024/04/11 01:37:28;;;;;;;3.97;1.20;;;;;;;15.34;42.98;102836.25;5306648;26;121267;-68
2024/04/11 01:39:56;;;;;;;4.88;1.10;;;;;;;15.34;42.97;102836.25;5301868;26;106981;-68
2024/04/11 01:42:24;;;;;;;6.80;1.20;;;;;;;15.35;42.75;102832.69;5322514;26;107926;-68
2024/04/11 01:44:52;;;;;;;5.90;1.42;;;;;;;15.35;42.81;102822.00;5304409;26;122551;-68
2024/04/11 01:47:19;;;;;;;3.70;1.40;;;;;;;15.36;43.01;102810.38;5319561;26;121570;-68
2024/04/11 01:49:46;;;;;;;5.47;1.52;;;;;;;15.37;43.02;102798.78;5318274;26;107565;-68
2024/04/11 01:52:14;;;;;;;5.22;1.30;;;;;;;15.38;42.81;102800.53;5307287;26;107545;-67
2024/04/11 01:54:42;;;;;;;6.20;1.27;;;;;;;15.40;43.00;102807.63;5307839;26;121271;-67
2024/04/11 01:57:10;;;;;;;5.47;1.30;;;;;;;15.38;43.01;102795.19;5311286;26;122202;-67
2024/04/11 01:59:41;;;;;;;5.00;1.50;;;;;;;15.40;42.81;102807.63;5303663;26;108056;-68
2024/04/11 02:02:09;;;;;;;5.63;1.70;;;;;;;15.40;42.80;102802.28;5305073;26;107389;-68
2024/04/11 02:04:36;;;;;;;7.07;1.60;;;;;;;15.42;42.96;102805.78;5305539;26;122877;-68
2024/04/11 02:07:04;;;;;;;5.88;1.33;;;;;;;15.43;42.79;102796.84;5324403;26;122162;-68
2024/04/11 02:09:32;;;;;;;6.07;1.65;;;;;;;15.43;42.65;102791.50;5323499;26;107788;-68
2024/04/11 02:12:00;;;;;;;5.35;1.27;;;;;;;15.43;42.88;102791.50;5306543;26;106751;-68
2024/04/11 02:14:29;;;;;;;4.18;1.25;;;;;;;15.44;42.97;102798.56;5316086;26;122248;-68
2024/04/11 02:16:56;;;;;;;6.63;1.45;;;;;;;15.44;42.92;102809.25;5311833;26;122185;-69
2024/04/11 02:19:26;;;;;;;6.65;1.60;;;;;;;15.44;42.78;102799.44;5324926;26;108294;-69
2024/04/11 02:21:53;;;;;;;5.47;1.40;;;;;;;15.47;42.96;102817.19;5313735;26;108588;-68
2024/04/11 02:24:23;;;;;;;5.70;1.63;;;;;;;15.48;42.79;102802.88;5314051;26;122933;-68
2024/04/11 02:26:52;;;;;;;3.33;1.40;;;;;;;15.48;42.71;102800.22;5319338;26;123063;-68
2024/04/11 02:29:20;;;;;;;6.18;1.40;;;;;;;15.49;42.62;102785.94;5316391;26;108050;-69
2024/04/11 02:31:48;;;;;;;5.95;1.40;;;;;;;15.49;42.53;102781.47;5311577;26;108225;-69
2024/04/11 02:34:18;;;;;;;6.65;1.40;;;;;;;15.50;42.81;102787.69;5308273;26;122480;-69
2024/04/11 02:36:49;;;;;;;5.15;1.40;;;;;;;15.52;42.88;102788.50;5309269;26;123021;-69
2024/04/11 02:39:17;;;;;;;5.03;1.40;;;;;;;15.51;42.99;102784.09;5303543;26;107790;-69
2024/04/11 02:41:46;;;;;;;5.78;1.50;;;;;;;15.52;42.63;102788.50;5313167;26;107674;-69
2024/04/11 02:44:18;;;;;;;3.67;1.50;;;;;;;15.52;42.60;102791.16;5309057;26;122727;-69
2024/04/11 02:46:46;;;;;;;6.72;1.50;;;;;;;15.52;42.88;102793.84;5313733;26;122280;-68
2024/04/11 02:49:15;;;;;;;4.28;1.60;;;;;;;15.51;42.46;102794.78;5306250;26;107513;-68
2024/04/11 02:51:44;;;;;;;6.88;1.17;;;;;;;15.53;43.01;102798.25;5316418;26;108623;-68
2024/04/11 02:54:12;;;;;;;3.90;1.52;;;;;;;15.52;42.99;102786.72;5325632;26;123314;-68
2024/04/11 02:56:41;;;;;;;6.80;1.42;;;;;;;15.53;42.86;102779.56;5325580;26;121054;-68
2024/04/11 02:59:11;;;;;;;6.45;1.30;;;;;;;15.54;42.68;102794.69;5313226;26;107438;-68
2024/04/11 03:01:39;;;;;;;3.95;1.38;;;;;;;15.53;42.66;102787.59;5317929;26;107639;-68
2024/04/11 03:04:06;;;;;;;4.25;1.63;;;;;;;15.53;42.91;102792.91;5311300;26;122587;-68
2024/04/11 03:06:35;;;;;;;5.50;1.42;;;;;;;15.54;42.65;102794.69;5312353;26;123083;-68
2024/04/11 03:09:03;;;;;;;5.22;1.50;;;;;;;15.52;42.80;102800.06;5313182;26;108700;-68
2024/04/11 03:11:35;;;;;;;6.10;1.33;;;;;;;15.52;42.84;102796.50;5317746;26;108626;-68
2024/04/11 03:14:04;;;;;;;4.15;1.38;;;;;;;15.52;42.92;102791.16;5318931;26;122305;-68
2024/04/11 03:16:31;;;;;;;7.13;1.50;;;;;;;15.51;42.70;102794.78;5309817;26;122208;-68
2024/04/11 03:18:59;;;;;;;7.68;1.35;;;;;;;15.50;43.04;102788.56;5308968;26;108203;-68
2024/04/11 03:21:28;;;;;;;5.35;1.60;;;;;;;15.51;42.69;102794.78;5307614;26;107304;-69
2024/04/11 03:23:55;;;;;;;4.53;1.17;;;;;;;15.51;43.19;102794.78;5308516;26;122635;-68
2024/04/11 03:26:23;;;;;;;8.95;1.45;;;;;;;15.53;42.79;102798.25;5315529;26;122172;-69
2024/04/11 03:28:50;;;;;;;5.82;1.38;;;;;;;15.55;43.03;102791.06;5308677;26;108094;-69
2024/04/11 03:31:18;;;;;;;5.53;1.55;;;;;;;15.56;42.94;102782.16;5303043;26;108556;-69
2024/04/11 03:33:46;;;;;;;5.28;1.33;;;;;;;15.55;42.83;102780.38;5305765;26;123361;-69
2024/04/11 03:36:15;;;;;;;5.50;1.25;;;;;;;15.54;43.06;102784.00;5308186;26;122242;-69
2024/04/11 03:38:44;;;;;;;5.03;1.50;;;;;;;15.54;42.80;102778.66;5301557;26;107520;-69
2024/04/11 03:41:11;;;;;;;5.25;1.50;;;;;;;15.54;42.92;102792.00;5317094;26;107797;-69
2024/04/11 03:43:41;;;;;;;5.70;1.33;;;;;;;15.54;43.13;102784.88;5324600;26;122625;-69
2024/04/11 03:46:12;;;;;;;6.45;1.35;;;;;;;15.55;42.96;102780.38;5307923;26;123762;-69
2024/04/11 03:48:39;;;;;;;5.88;1.50;;;;;;;15.53;42.98;102782.25;5305702;26;107921;-69
2024/04/11 03:51:22;;;;;;;4.32;1.80;;;;;;;15.51;43.29;102779.63;5306533;26;107418;-69
2024/04/11 03:53:56;;;;;;;8.70;1.50;;;;;;;15.53;43.00;102787.59;5313807;26;122414;-69
2024/04/11 03:56:27;;;;;;;5.72;1.80;;;;;;;15.54;42.98;102784.00;5307295;26;122203;-69
2024/04/11 03:58:57;;;;;;;7.78;1.80;;;;;;;15.55;43.47;102775.03;5310547;26;109016;-69
2024/04/11 04:01:26;;;;;;;7.22;1.38;;;;;;;15.56;43.37;102774.13;5316430;26;108571;-69
2024/04/11 04:04:02;;;;;;;5.25;1.60;;;;;;;15.56;43.36;102776.81;5314816;26;122174;-68
2024/04/11 04:06:33;;;;;;;5.03;1.30;;;;;;;15.56;43.22;102777.66;5316759;26;123585;-69
2024/04/11 04:09:10;;;;;;;7.60;1.73;;;;;;;15.58;43.16;102774.94;5306255;26;107800;-69
2024/04/11 04:11:38;;;;;;;4.63;1.27;;;;;;;15.56;43.31;102768.78;5320267;26;108049;-69
2024/04/11 04:14:08;;;;;;;5.15;1.85;;;;;;;15.57;43.30;102767.84;5320080;26;122252;-69
2024/04/11 04:16:41;;;;;;;4.25;1.27;;;;;;;15.57;43.38;102774.06;5303097;26;122523;-69
2024/04/11 04:19:11;;;;;;;5.10;1.40;;;;;;;15.57;43.37;102767.84;5307590;26;107688;-69
2024/04/11 04:21:39;;;;;;;4.28;1.00;;;;;;;15.56;43.25;102766.97;5313231;26;107646;-69
2024/04/11 04:24:08;;;;;;;6.30;1.50;;;;;;;15.57;43.45;102767.84;5307744;26;122252;-69
2024/04/11 04:26:38;;;;;;;6.43;1.48;;;;;;;15.56;43.15;102760.78;5309982;26;122133;-69
2024/04/11 04:29:09;;;;;;;8.57;1.83;;;;;;;15.53;43.33;102760.88;5316713;26;107763;-69
2024/04/11 04:31:37;;;;;;;5.47;1.45;;;;;;;15.54;43.26;102762.63;5320725;26;107426;-69
2024/04/11 04:34:04;;;;;;;5.70;1.52;;;;;;;15.54;43.46;102752.81;5302983;26;123360;-69
2024/04/11 04:36:39;;;;;;;3.92;1.13;;;;;;;15.52;43.71;102748.44;5303304;26;123041;-69
2024/04/11 04:39:13;;;;;;;3.33;1.40;;;;;;;15.49;43.41;102748.56;5303903;26;108779;-68
2024/04/11 04:41:44;;;;;;;5.00;1.17;;;;;;;15.48;43.36;102746.81;5316653;26;107405;-68
2024/04/11 04:44:12;;;;;;;5.00;1.55;;;;;;;15.46;43.32;102738.84;5311471;26;122865;-68
2024/04/11 04:46:41;;;;;;;6.97;1.10;;;;;;;15.47;43.37;102742.41;5321365;26;122984;-68
2024/04/11 04:49:09;;;;;;;3.10;1.20;;;;;;;15.46;43.46;102738.84;5310099;26;108578;-68
2024/04/11 04:51:39;;;;;;;4.40;1.10;;;;;;;15.45;43.58;102736.25;5305762;26;108413;-68
2024/04/11 04:54:11;;;;;;;4.00;1.13;;;;;;;15.44;43.59;102731.81;5317296;26;122621;-69
2024/04/11 04:56:41;;;;;;;3.05;0.95;;;;;;;15.43;43.37;102738.97;5311755;26;122486;-68
2024/04/11 04:59:12;;;;;;;5.15;1.27;;;;;;;15.42;43.32;102741.69;5304396;26;108036;-69
2024/04/11 05:01:40;;;;;;;3.55;1.27;;;;;;;15.43;43.45;102748.78;5324795;26;107903;-69
2024/04/11 05:04:13;;;;;;;5.60;1.60;;;;;;;15.43;43.61;102743.44;5306652;26;122510;-68
2024/04/11 05:06:44;;;;;;;2.90;1.10;;;;;;;15.43;43.71;102743.44;5315148;26;121895;-68
2024/04/11 05:09:11;;;;;;;3.85;1.10;;;;;;;15.43;43.65;102743.44;5309361;26;107996;-67
2024/04/11 05:11:40;;;;;;;3.40;0.98;;;;;;;15.43;43.71;102743.44;5316395;26;107163;-66
2024/04/11 05:14:08;;;;;;;3.05;1.20;;;;;;;15.43;43.98;102738.09;5306735;26;122640;-66
2024/04/11 05:16:36;;;;;;;3.78;1.10;;;;;;;15.43;43.57;102743.44;5314327;26;122127;-66
2024/04/11 05:19:11;;;;;;;4.28;1.20;;;;;;;15.43;43.74;102754.13;5297857;26;106732;-66
2024/04/11 05:21:50;;;;;;;6.63;1.10;;;;;;;15.43;43.64;102748.78;5183326;26;106303;-67
2024/04/11 05:24:18;;;;;;;4.75;1.30;;;;;;;15.45;44.24;102762.94;5201754;27;122168;-66
2024/04/11 05:26:50;;;;;;;5.18;1.17;;;;;;;15.44;44.05;102772.75;5194748;26;122178;-68
2024/04/11 05:29:18;;;;;;;2.92;0.90;;;;;;;15.46;43.98;102770.03;5186118;27;107422;-68
2024/04/11 05:31:46;;;;;;;4.50;1.10;;;;;;;15.48;44.25;102768.16;5190592;27;108863;-68
2024/04/11 05:34:16;;;;;;;3.95;1.20;;;;;;;15.47;44.02;102766.44;5191196;27;122306;-68
2024/04/11 05:36:44;;;;;;;3.53;0.90;;;;;;;15.49;43.92;102780.59;5190286;27;123069;-68
2024/04/11 05:39:15;;;;;;;4.05;1.00;;;;;;;15.50;44.31;102782.34;5192191;27;108719;-68
2024/04/11 05:41:45;;;;;;;2.97;1.10;;;;;;;15.51;44.30;102784.09;5169324;27;108515;-68
2024/04/11 05:44:14;;;;;;;4.20;1.17;;;;;;;15.53;44.45;102787.59;5187645;27;121763;-68
2024/04/11 05:46:42;;;;;;;4.72;1.20;;;;;;;15.55;44.16;102791.06;5162818;27;121962;-68
2024/04/11 05:49:09;;;;;;;8.02;1.20;;;;;;;15.57;44.43;102799.91;5187047;27;107418;-68
2024/04/11 05:51:37;;;;;;;2.55;1.05;;;;;;;15.57;44.32;102795.41;5175582;27;107840;-66
2024/04/11 05:54:07;;;;;;;5.03;1.15;;;;;;;15.60;44.61;102805.16;5193678;27;122359;-68
2024/04/11 05:56:35;;;;;;;5.32;1.30;;;;;;;15.61;44.51;102806.88;5197112;27;122858;-68
2024/04/11 05:59:03;;;;;;;4.50;1.20;;;;;;;15.64;44.69;102817.47;5199216;27;107631;-68
2024/04/11 06:01:34;;;;;;;7.90;1.30;;;;;;;15.68;44.29;102815.56;5180355;27;108032;-68
2024/04/11 06:04:05;;;;;;;7.25;1.60;;;;;;;15.70;44.57;102822.59;5188242;27;123843;-68
2024/04/11 06:06:33;;;;;;;3.70;1.10;;;;;;;15.72;44.35;102826.06;5172750;27;123016;-68
2024/04/11 06:09:02;;;;;;;5.13;1.35;;;;;;;15.73;44.40;102827.88;5193393;27;107336;-69
2024/04/11 06:11:30;;;;;;;4.10;1.00;;;;;;;15.76;44.40;102838.47;5188601;27;107215;-68
2024/04/11 06:13:58;;;;;;;4.40;0.93;;;;;;;15.78;44.87;102835.72;5194745;27;122625;-68
2024/04/11 06:16:25;;;;;;;5.18;1.05;;;;;;;15.79;44.26;102833.94;5180350;27;121965;-68
2024/04/11 06:18:54;;;;;;;5.95;1.20;;;;;;;15.81;44.52;102837.41;5194303;27;107547;-68
2024/04/11 06:21:32;;;;;;;4.22;1.05;;;;;;;15.82;44.66;102841.81;5178568;26;106862;-68
2024/04/11 06:24:01;;;;;;;4.95;1.48;;;;;;;15.83;44.66;102839.09;5179623;27;123278;-68
2024/04/11 06:26:35;;;;;;;3.92;1.40;;;;;;;15.86;44.73;102843.44;5181267;27;122600;-68
2024/04/11 06:29:07;;;;;;;6.20;1.42;;;;;;;15.86;44.53;102838.09;5177162;27;108594;-68
2024/04/11 06:31:38;;;;;;;5.05;1.23;;;;;;;15.87;45.06;102845.22;5181861;27;108679;-68
2024/04/11 06:34:08;;;;;;;5.28;1.50;;;;;;;15.89;44.79;102843.34;5176956;27;121546;-68
2024/04/11 06:36:38;;;;;;;7.68;1.30;;;;;;;15.92;44.77;102848.59;5180059;27;121884;-68
2024/04/11 06:39:13;;;;;;;2.92;1.33;;;;;;;15.94;45.20;102862.78;5191814;27;107974;-68
2024/04/11 06:41:42;;;;;;;6.93;1.33;;;;;;;15.96;44.85;102855.56;5172614;27;106294;-68
2024/04/11 06:44:10;;;;;;;3.45;1.23;;;;;;;15.96;45.41;102866.25;5187458;27;122187;-68
2024/04/11 06:46:45;;;;;;;6.78;1.10;;;;;;;15.98;44.99;102869.75;5184902;27;122758;-68
2024/04/11 06:49:13;;;;;;;6.03;1.27;;;;;;;15.97;45.24;102868.00;5194274;27;108051;-66
2024/04/11 06:51:40;;;;;;;4.10;1.20;;;;;;;15.94;45.29;102868.97;5193513;27;107948;-68
2024/04/11 06:54:10;;;;;;;8.88;1.67;;;;;;;15.92;45.34;102865.50;5171839;27;122096;-67
2024/04/11 06:56:37;;;;;;;4.45;1.23;;;;;;;15.92;45.62;102869.97;5185337;27;122956;-66
2024/04/11 06:59:10;;;;;;;5.53;1.50;;;;;;;15.92;45.47;102864.63;5189403;27;107844;-67
2024/04/11 07:01:39;;;;;;;4.30;1.20;;;;;;;15.92;45.65;102856.63;5153324;27;108123;-67
2024/04/11 07:04:13;;;;;;;4.20;1.33;;;;;;;15.88;45.91;102852.28;5187860;26;122364;-67
2024/04/11 07:06:42;;;;;;;6.10;1.20;;;;;;;15.87;46.04;102853.22;5190031;27;122580;-67
2024/04/11 07:09:11;;;;;;;3.03;1.23;;;;;;;15.85;46.21;102853.28;5153601;27;107555;-67
2024/04/11 07:11:42;;;;;;;3.05;0.95;;;;;;;15.85;46.27;102852.41;5180869;27;107438;-67
2024/04/11 07:14:15;;;;;;;6.10;1.45;;;;;;;15.83;46.41;102844.44;5175531;27;122339;-67
2024/04/11 07:16:52;;;;;;;5.78;1.25;;;;;;;15.82;46.51;102847.16;5183763;27;121915;-67
2024/04/11 07:19:20;;;;;;;3.03;1.25;;;;;;;15.81;46.69;102834.75;5195477;27;108496;-67
2024/04/11 07:21:48;;;;;;;5.13;1.20;;;;;;;15.82;46.70;102836.47;5182337;27;108965;-67
2024/04/11 07:24:15;;;;;;;5.97;1.50;;;;;;;15.82;46.64;102847.16;5189941;27;122091;-67
2024/04/11 07:26:43;;;;;;;4.50;1.10;;;;;;;15.81;46.75;102843.63;5189037;27;122170;-67
2024/04/11 07:29:10;;;;;;;9.32;1.65;;;;;;;15.80;46.80;102846.34;5191623;27;107922;-67
2024/04/11 07:31:39;;;;;;;5.63;1.10;;;;;;;15.81;47.09;102856.13;5176690;27;107325;-66
2024/04/11 07:34:08;;;;;;;4.90;1.65;;;;;;;15.82;46.93;102863.19;5174706;27;122364;-66
2024/04/11 07:36:39;;;;;;;4.88;1.13;;;;;;;15.83;47.49;102870.28;5184545;27;122213;-67
2024/04/11 07:39:13;;;;;;;4.47;1.42;;;;;;;15.84;47.54;102866.69;5195798;27;108010;-67
2024/04/11 07:41:48;;;;;;;4.72;1.20;;;;;;;15.87;47.52;102882.63;5192368;27;108858;-67
2024/04/11 07:44:17;;;;;;;4.77;1.53;;;;;;;15.87;47.36;102877.28;5188605;27;122670;-67
2024/04/11 07:46:46;;;;;;;6.03;1.35;;;;;;;15.87;47.35;102887.97;5199170;27;122501;-67
2024/04/11 07:49:35;;;;;;;4.32;1.27;;;;;;;15.89;47.63;102896.78;5199485;27;107460;-68
2024/04/11 07:52:04;;;;;;;5.30;1.40;;;;;;;15.90;47.66;102893.22;5186684;27;107551;-68
2024/04/11 07:54:31;;;;;;;3.63;1.17;;;;;;;15.93;47.63;102903.78;5192399;27;122205;-68
2024/04/11 07:57:12;;;;;;;3.63;1.38;;;;;;;15.93;47.77;102903.78;5196606;27;123505;-69
2024/04/11 07:59:41;;;;;;;6.07;1.75;;;;;;;15.94;47.95;102905.53;5184333;26;108054;-68
2024/04/11 08:02:10;;;;;;;2.80;1.27;;;;;;;15.95;47.83;102907.25;5177999;26;107966;-68
2024/04/11 08:04:39;;;;;;;4.50;1.13;;;;;;;15.96;48.17;102909.03;5170030;27;122409;-69
2024/04/11 08:07:06;;;;;;;8.23;1.55;;;;;;;15.95;47.96;102901.91;5182817;27;122109;-68
2024/04/11 08:09:44;;;;;;;6.43;1.40;;;;;;;15.98;48.26;102915.19;5173568;27;108475;-68
2024/04/11 08:12:17;;;;;;;5.88;1.50;;;;;;;16.02;48.31;102922.16;5179558;27;108820;-68
2024/04/11 08:14:45;;;;;;;5.68;1.48;;;;;;;16.05;48.80;102927.41;5190188;27;122331;-68
2024/04/11 08:17:13;;;;;;;4.82;1.55;;;;;;;16.08;49.09;102932.63;5182453;27;121268;-67
2024/04/11 08:19:43;;;;;;;4.95;1.85;;;;;;;16.09;49.39;102936.22;5199361;27;107691;-67
2024/04/11 08:22:25;;;;;;;4.50;1.70;;;;;;;16.08;49.59;102935.31;5200538;27;105879;-68
2024/04/11 08:24:53;;;;;;;6.82;1.63;;;;;;;16.07;49.78;102946.94;5179829;27;122417;-68
2024/04/11 08:27:22;;;;;;;6.72;1.77;;;;;;;16.06;49.94;102947.84;5178438;27;122961;-68
2024/04/11 08:29:55;;;;;;;6.07;2.20;;;;;;;16.05;50.04;102946.13;5196085;26;104884;-67
2024/04/11 08:32:32;;;;;;;4.90;2.00;;;;;;;16.04;50.28;102949.72;5185197;27;107470;-67
2024/04/11 08:35:02;;;;;;;6.90;2.00;;;;;;;16.05;50.11;102956.81;5162831;27;123420;-67
2024/04/11 08:37:30;;;;;;;9.57;2.17;;;;;;;16.07;50.17;102960.31;5183285;27;122243;-68
2024/04/11 08:39:59;;;;;;;7.80;2.30;;;;;;;16.08;50.40;102964.72;5166868;27;107681;-68
2024/04/11 08:42:29;;;;;;;4.53;2.20;;;;;;;16.11;50.96;102967.28;5159658;26;107016;-68
2024/04/11 08:44:58;;;;;;;7.90;2.10;;;;;;;16.14;51.04;102972.56;5180843;27;122590;-68
2024/04/11 08:47:25;;;;;;;5.35;2.28;;;;;;;16.17;50.89;102970.69;5196773;27;123132;-67
2024/04/11 08:49:53;;;;;;;5.25;2.05;;;;;;;16.19;51.00;102971.50;5182355;26;108526;-67
2024/04/11 08:52:23;;;;;;;7.97;2.20;;;;;;;16.24;51.05;102975.78;5183501;26;106406;-68
2024/04/11 08:54:52;;;;;;;6.80;2.30;;;;;;;16.28;51.09;102979.22;5189451;27;122817;-68
2024/04/11 08:57:20;;;;;;;5.03;2.25;;;;;;;16.33;51.60;102977.22;5181578;27;122111;-68
2024/04/11 08:59:48;;;;;;;6.93;2.10;;;;;;;16.37;51.37;102973.56;5193834;27;108338;-67
2024/04/11 09:02:15;;;;;;;5.28;2.10;;;;;;;16.39;51.86;102982.38;5190282;27;109011;-67
2024/04/11 09:04:43;;;;;;;7.07;2.20;;;;;;;16.42;51.48;102986.75;5165963;27;122109;-67
2024/04/11 09:07:21;;;;;;;6.55;2.00;;;;;;;16.43;51.56;102984.03;5187774;26;122660;-68
2024/04/11 09:09:49;;;;;;;5.95;1.90;;;;;;;16.44;51.41;102985.75;5182768;26;109040;-68
2024/04/11 09:12:17;;;;;;;10.00;2.15;;;;;;;16.47;52.05;102974.97;5171975;27;107718;-68
2024/04/11 09:14:47;;;;;;;5.38;1.98;;;;;;;16.53;51.74;102974.72;5174258;27;122072;-68
2024/04/11 09:17:15;;;;;;;7.68;2.10;;;;;;;16.59;51.78;102984.34;5180968;27;121276;-67
2024/04/11 09:19:49;;;;;;;7.88;2.15;;;;;;;16.66;52.03;102985.00;5194112;27;108225;-68
2024/04/11 09:22:21;;;;;;;8.57;2.47;;;;;;;16.72;52.19;102990.13;5187388;27;107356;-68
2024/04/11 09:24:50;;;;;;;6.45;1.88;;;;;;;16.79;51.89;102991.63;5173466;27;122729;-68
2024/04/11 09:27:20;;;;;;;9.18;2.53;;;;;;;16.85;52.13;102978.06;5174413;27;122286;-68
2024/04/11 09:29:52;;;;;;;6.93;2.10;;;;;;;16.97;52.26;102973.19;5208222;21;107757;-78
2024/04/11 09:32:24;;;;;;;8.00;2.42;;;;;;;17.11;52.56;102977.06;5284411;26;108422;-78
2024/04/11 09:34:56;;;;;;;6.18;2.42;;;;;;;17.28;52.54;102987.13;5278310;26;122286;-79
2024/04/11 09:37:28;;;;;;;6.55;2.40;;;;;;;17.44;52.13;102983.84;5243230;26;122067;-78
2024/04/11 09:39:56;;;;;;;6.03;2.20;;;;;;;17.52;52.01;102987.09;5270166;26;106571;-80
2024/04/11 09:42:27;;;;;;;5.38;2.10;;;;;;;17.57;51.78;102978.88;5249870;26;107036;-78
2024/04/11 09:44:55;;;;;;;7.38;2.30;;;;;;;17.62;51.64;102985.78;5256014;26;122896;-79
2024/04/11 09:47:31;;;;;;;6.78;2.60;;;;;;;17.67;51.57;102994.53;5276963;26;120709;-79
2024/04/11 09:50:04;;;;;;;6.50;2.20;;;;;;;17.69;51.56;103006.06;5249444;26;107552;-79
2024/04/11 09:52:41;;;;;;;9.07;2.00;;;;;;;17.76;51.67;103005.78;5216980;26;108280;-79
2024/04/11 09:55:08;;;;;;;4.43;2.05;;;;;;;17.86;51.31;103012.56;5250820;26;122351;-79
2024/04/11 09:57:44;;;;;;;5.15;2.20;;;;;;;17.95;51.25;103000.56;5283662;26;122186;-79
2024/04/11 10:00:43;;;;;;;4.15;1.90;;;;;;;18.03;51.34;103010.06;5282480;26;107685;-78
2024/04/11 10:03:07;;;;;;;5.35;1.98;;;;;;;18.11;50.96;103000.81;5283055;26;107649;-77
2024/04/11 10:05:40;;;;;;;7.70;2.30;;;;;;;18.14;50.89;103006.03;5260878;26;122156;-79
2024/04/11 10:08:16;;;;;;;5.15;2.13;;;;;;;18.14;50.84;103006.03;5269547;26;121665;-79
2024/04/11 10:10:50;;;;;;;5.60;2.00;;;;;;;18.14;50.95;103006.03;5275513;26;107037;-78
2024/04/11 10:13:21;;;;;;;5.68;2.30;;;;;;;18.17;51.06;103016.66;5284111;26;107827;-79
2024/04/11 10:16:05;;;;;;;7.88;2.25;;;;;;;18.21;51.23;103016.44;5288283;26;121992;-80
2024/04/11 10:18:41;;;;;;;6.70;2.92;;;;;;;18.25;50.92;103019.88;5282769;26;122136;-80
2024/04/11 10:21:12;;;;;;;7.00;2.63;;;;;;;18.29;51.22;103026.88;5281556;26;107746;-79
2024/04/11 10:23:39;;;;;;;7.32;3.03;;;;;;;18.30;50.89;103036.63;5256964;26;107519;-80
2024/04/11 10:26:07;;;;;;;7.75;2.40;;;;;;;18.28;50.96;103041.22;5287444;26;122247;-80
2024/04/11 10:28:51;;;;;;;5.97;2.95;;;;;;;18.26;51.15;103038.59;5260191;26;121197;-80
2024/04/11 10:31:22;;;;;;;7.28;2.90;;;;;;;18.28;51.44;103041.22;5248856;26;108951;-80
2024/04/11 10:34:10;;;;;;;6.20;2.83;;;;;;;18.28;51.24;103038.53;5240060;26;106951;-79
2024/04/11 10:36:42;;;;;;;7.28;2.80;;;;;;;18.32;51.42;103037.44;5268561;26;122073;-81
2024/04/11 10:39:10;;;;;;;5.30;2.30;;;;;;;18.38;51.99;103042.53;5290702;26;122068;-81
2024/04/11 10:41:37;;;;;;;6.15;2.80;;;;;;;18.46;51.71;103040.41;5253493;26;107514;-80
2024/04/11 10:44:06;;;;;;;8.63;2.90;;;;;;;18.52;51.83;103046.47;5286656;26;109594;-80
2024/04/11 10:46:34;;;;;;;7.05;2.85;;;;;;;18.54;51.95;103052.63;5254742;26;122697;-80
2024/04/11 10:49:27;;;;;;;4.72;2.75;;;;;;;18.58;51.37;103059.63;5241811;26;121180;-80
2024/04/11 10:51:58;;;;;;;7.57;3.08;;;;;;;18.58;51.72;103059.63;5271489;26;108283;-81
2024/04/11 10:54:26;;;;;;;5.97;3.17;;;;;;;18.58;51.71;103054.25;5261826;26;106470;-80
2024/04/11 10:56:57;;;;;;;8.23;3.65;;;;;;;18.59;51.80;103056.88;5279029;26;121009;-80
2024/04/11 10:59:32;;;;;;;7.60;3.80;;;;;;;18.62;52.08;103050.47;5252610;26;120010;-80
2024/04/11 11:02:02;;;;;;;6.77;3.73;;;;;;;18.64;51.79;103056.66;5279055;26;107715;-80
2024/04/11 11:04:37;;;;;;;9.10;4.20;;;;;;;18.65;51.83;103067.31;5254940;26;106423;-79
2024/04/11 11:07:11;;;;;;;5.38;3.97;;;;;;;18.65;51.97;103067.31;5272528;26;122241;-80
2024/04/11 11:09:45;;;;;;;6.20;3.70;;;;;;;18.67;52.25;103064.59;5252921;26;121876;-79
2024/04/11 11:12:18;;;;;;;;;;;;;;;18.66;51.74;103057.47;5266463;26;107705;-79
2024/04/11 11:14:50;;;;;;;6.90;4.35;;;;;;;18.69;51.67;103062.69;5228943;26;109007;-81
2024/04/11 11:17:18;;;;;;;8.43;4.38;;;;;;;18.71;51.88;103066.19;5277664;26;123496;-80
2024/04/11 11:19:55;;;;;;;8.73;4.70;;;;;;;18.71;52.06;103066.19;5273603;26;123235;-79
2024/04/11 11:22:33;;;;;;;6.63;3.88;;;;;;;18.69;52.32;103062.69;5257616;26;107530;-80
2024/04/11 11:25:02;;;;;;;8.68;4.78;;;;;;;18.68;52.39;103066.31;5281358;26;106569;-80
2024/04/11 11:27:33;;;;;;;6.85;4.53;;;;;;;18.68;52.50;103082.41;5260095;26;121807;-79
2024/04/11 11:30:05;;;;;;;9.18;4.80;;;;;;;18.65;52.49;103064.66;5281163;26;121921;-79